sensor_id;sensor_type;location;lat;lon;timestamp;P1;durP1;ratioP1;P2;durP2;ratioP2
23370;SDS011;11858;51.056;3.712;2023-12-20T00:01:23;1.30;;;1.30;;
23370;SDS011;11858;51.056;3.712;2023-12-20T00:03:49;2.63;;;2.42;;
23370;SDS011;11858;51.056;3.712;2023-12-20T00:06:15;1.42;;;1.42;;
23370;SDS011;11858;51.056;3.712;2023-12-20T00:08:40;1.30;;;1.30;;
23370;SDS011;11858;51.056;3.712;2023-12-20T00:11:06;1.30;;;1.30;;
23370;SDS011;11858;51.056;3.712;2023-12-20T00:13:32;1.30;;;1.30;;
23370;SDS011;11858;51.056;3.712;2023-12-20T00:15:57;1.55;;;1.55;;
23370;SDS011;11858;51.056;3.712;2023-12-20T00:18:23;1.30;;;1.30;;
23370;SDS011;11858;51.056;3.712;2023-12-20T00:20:49;3.03;;;2.53;;
23370;SDS011;11858;51.056;3.712;2023-12-20T00:23:14;1.42;;;1.42;;
23370;SDS011;11858;51.056;3.712;2023-12-20T00:25:40;1.20;;;1.20;;
23370;SDS011;11858;51.056;3.712;2023-12-20T00:28:06;1.20;;;1.20;;
23370;SDS011;11858;51.056;3.712;2023-12-20T00:30:31;7.35;;;2.50;;
23370;SDS011;11858;51.056;3.712;2023-12-20T00:32:57;1.30;;;1.30;;
23370;SDS011;11858;51.056;3.712;2023-12-20T00:35:23;1.35;;;1.35;;
23370;SDS011;11858;51.056;3.712;2023-12-20T00:37:49;1.10;;;1.10;;
23370;SDS011;11858;51.056;3.712;2023-12-20T00:40:14;4.72;;;1.75;;
23370;SDS011;11858;51.056;3.712;2023-12-20T00:42:41;1.30;;;1.30;;
23370;SDS011;11858;51.056;3.712;2023-12-20T00:45:07;4.40;;;1.73;;
23370;SDS011;11858;51.056;3.712;2023-12-20T00:47:33;8.60;;;2.28;;
23370;SDS011;11858;51.056;3.712;2023-12-20T00:49:58;3.70;;;1.77;;
23370;SDS011;11858;51.056;3.712;2023-12-20T00:52:24;1.20;;;1.20;;
23370;SDS011;11858;51.056;3.712;2023-12-20T00:54:50;5.80;;;2.67;;
23370;SDS011;11858;51.056;3.712;2023-12-20T00:57:16;5.47;;;2.67;;
23370;SDS011;11858;51.056;3.712;2023-12-20T00:59:41;5.30;;;1.50;;
23370;SDS011;11858;51.056;3.712;2023-12-20T01:02:07;1.40;;;1.40;;
23370;SDS011;11858;51.056;3.712;2023-12-20T01:04:34;13.65;;;4.80;;
23370;SDS011;11858;51.056;3.712;2023-12-20T01:06:59;6.38;;;2.22;;
23370;SDS011;11858;51.056;3.712;2023-12-20T01:09:25;2.47;;;2.25;;
23370;SDS011;11858;51.056;3.712;2023-12-20T01:11:54;4.70;;;1.45;;
23370;SDS011;11858;51.056;3.712;2023-12-20T01:14:19;1.95;;;1.85;;
23370;SDS011;11858;51.056;3.712;2023-12-20T01:16:45;5.18;;;1.95;;
23370;SDS011;11858;51.056;3.712;2023-12-20T01:19:11;6.05;;;2.65;;
23370;SDS011;11858;51.056;3.712;2023-12-20T01:21:38;1.20;;;1.20;;
23370;SDS011;11858;51.056;3.712;2023-12-20T01:24:04;2.50;;;2.30;;
23370;SDS011;11858;51.056;3.712;2023-12-20T01:26:30;1.30;;;1.30;;
23370;SDS011;11858;51.056;3.712;2023-12-20T01:28:55;19.60;;;4.95;;
23370;SDS011;11858;51.056;3.712;2023-12-20T01:31:21;17.55;;;3.10;;
23370;SDS011;11858;51.056;3.712;2023-12-20T01:33:47;17.20;;;3.03;;
23370;SDS011;11858;51.056;3.712;2023-12-20T01:36:12;1.30;;;1.30;;
23370;SDS011;11858;51.056;3.712;2023-12-20T01:38:38;1.50;;;1.48;;
23370;SDS011;11858;51.056;3.712;2023-12-20T01:41:04;1.75;;;1.65;;
23370;SDS011;11858;51.056;3.712;2023-12-20T01:43:29;14.13;;;3.95;;
23370;SDS011;11858;51.056;3.712;2023-12-20T01:45:56;8.43;;;3.00;;
23370;SDS011;11858;51.056;3.712;2023-12-20T01:48:23;15.82;;;3.33;;
23370;SDS011;11858;51.056;3.712;2023-12-20T01:50:49;3.45;;;3.05;;
23370;SDS011;11858;51.056;3.712;2023-12-20T01:53:16;2.58;;;2.42;;
23370;SDS011;11858;51.056;3.712;2023-12-20T01:55:43;26.73;;;3.58;;
23370;SDS011;11858;51.056;3.712;2023-12-20T01:58:10;8.60;;;2.83;;
23370;SDS011;11858;51.056;3.712;2023-12-20T02:00:37;7.32;;;2.10;;
23370;SDS011;11858;51.056;3.712;2023-12-20T02:03:03;1.63;;;1.58;;
23370;SDS011;11858;51.056;3.712;2023-12-20T02:05:30;1.60;;;1.50;;
23370;SDS011;11858;51.056;3.712;2023-12-20T02:07:56;17.10;;;3.17;;
23370;SDS011;11858;51.056;3.712;2023-12-20T02:10:22;21.90;;;4.38;;
23370;SDS011;11858;51.056;3.712;2023-12-20T02:12:49;2.03;;;1.88;;
23370;SDS011;11858;51.056;3.712;2023-12-20T02:15:15;2.58;;;2.30;;
23370;SDS011;11858;51.056;3.712;2023-12-20T02:17:40;18.25;;;4.03;;
23370;SDS011;11858;51.056;3.712;2023-12-20T02:20:06;3.22;;;2.05;;
23370;SDS011;11858;51.056;3.712;2023-12-20T02:22:32;11.93;;;2.17;;
23370;SDS011;11858;51.056;3.712;2023-12-20T02:24:58;3.42;;;1.65;;
23370;SDS011;11858;51.056;3.712;2023-12-20T02:27:24;5.28;;;2.25;;
23370;SDS011;11858;51.056;3.712;2023-12-20T02:29:50;1.33;;;1.33;;
23370;SDS011;11858;51.056;3.712;2023-12-20T02:32:16;2.25;;;1.77;;
23370;SDS011;11858;51.056;3.712;2023-12-20T02:34:43;5.07;;;3.05;;
23370;SDS011;11858;51.056;3.712;2023-12-20T02:37:09;2.13;;;2.05;;
23370;SDS011;11858;51.056;3.712;2023-12-20T02:39:35;6.85;;;2.05;;
23370;SDS011;11858;51.056;3.712;2023-12-20T02:42:00;1.50;;;1.50;;
23370;SDS011;11858;51.056;3.712;2023-12-20T02:44:26;2.00;;;1.75;;
23370;SDS011;11858;51.056;3.712;2023-12-20T02:46:52;1.50;;;1.50;;
23370;SDS011;11858;51.056;3.712;2023-12-20T02:49:17;9.02;;;3.00;;
23370;SDS011;11858;51.056;3.712;2023-12-20T02:51:43;17.15;;;3.25;;
23370;SDS011;11858;51.056;3.712;2023-12-20T02:54:09;2.30;;;2.20;;
23370;SDS011;11858;51.056;3.712;2023-12-20T02:56:35;7.65;;;2.60;;
23370;SDS011;11858;51.056;3.712;2023-12-20T02:59:00;10.07;;;3.20;;
23370;SDS011;11858;51.056;3.712;2023-12-20T03:01:27;2.25;;;1.63;;
23370;SDS011;11858;51.056;3.712;2023-12-20T03:03:54;4.88;;;2.05;;
23370;SDS011;11858;51.056;3.712;2023-12-20T03:06:20;5.97;;;2.50;;
23370;SDS011;11858;51.056;3.712;2023-12-20T03:08:45;24.88;;;2.50;;
23370;SDS011;11858;51.056;3.712;2023-12-20T03:11:11;5.47;;;2.25;;
23370;SDS011;11858;51.056;3.712;2023-12-20T03:13:37;2.13;;;2.03;;
23370;SDS011;11858;51.056;3.712;2023-12-20T03:16:12;6.03;;;2.90;;
23370;SDS011;11858;51.056;3.712;2023-12-20T03:18:38;2.15;;;2.00;;
23370;SDS011;11858;51.056;3.712;2023-12-20T03:21:05;1.60;;;1.60;;
23370;SDS011;11858;51.056;3.712;2023-12-20T03:23:31;1.63;;;1.63;;
23370;SDS011;11858;51.056;3.712;2023-12-20T03:25:59;3.80;;;2.88;;
23370;SDS011;11858;51.056;3.712;2023-12-20T03:28:29;1.90;;;1.80;;
23370;SDS011;11858;51.056;3.712;2023-12-20T03:30:55;2.00;;;1.90;;
23370;SDS011;11858;51.056;3.712;2023-12-20T03:33:20;1.75;;;1.70;;
23370;SDS011;11858;51.056;3.712;2023-12-20T03:35:46;4.35;;;2.67;;
23370;SDS011;11858;51.056;3.712;2023-12-20T03:38:12;1.90;;;1.80;;
23370;SDS011;11858;51.056;3.712;2023-12-20T03:40:37;1.90;;;1.80;;
23370;SDS011;11858;51.056;3.712;2023-12-20T03:43:03;7.18;;;2.55;;
23370;SDS011;11858;51.056;3.712;2023-12-20T03:45:29;5.82;;;2.83;;
23370;SDS011;11858;51.056;3.712;2023-12-20T03:47:55;2.20;;;2.03;;
23370;SDS011;11858;51.056;3.712;2023-12-20T03:50:24;7.90;;;3.03;;
23370;SDS011;11858;51.056;3.712;2023-12-20T03:52:52;2.03;;;1.92;;
23370;SDS011;11858;51.056;3.712;2023-12-20T03:55:18;15.15;;;3.22;;
23370;SDS011;11858;51.056;3.712;2023-12-20T03:57:44;16.13;;;2.35;;
23370;SDS011;11858;51.056;3.712;2023-12-20T04:00:10;22.88;;;4.68;;
23370;SDS011;11858;51.056;3.712;2023-12-20T04:02:36;7.35;;;2.45;;
23370;SDS011;11858;51.056;3.712;2023-12-20T04:05:02;18.50;;;4.80;;
23370;SDS011;11858;51.056;3.712;2023-12-20T04:07:30;5.97;;;3.35;;
23370;SDS011;11858;51.056;3.712;2023-12-20T04:09:55;4.22;;;3.17;;
23370;SDS011;11858;51.056;3.712;2023-12-20T04:12:21;3.47;;;2.55;;
23370;SDS011;11858;51.056;3.712;2023-12-20T04:14:47;1.85;;;1.77;;
23370;SDS011;11858;51.056;3.712;2023-12-20T04:17:13;1.60;;;1.60;;
23370;SDS011;11858;51.056;3.712;2023-12-20T04:19:40;4.60;;;2.45;;
23370;SDS011;11858;51.056;3.712;2023-12-20T04:22:06;3.30;;;2.30;;
23370;SDS011;11858;51.056;3.712;2023-12-20T04:24:32;2.67;;;2.30;;
23370;SDS011;11858;51.056;3.712;2023-12-20T04:26:58;8.73;;;2.45;;
23370;SDS011;11858;51.056;3.712;2023-12-20T04:29:23;12.63;;;3.80;;
23370;SDS011;11858;51.056;3.712;2023-12-20T04:31:49;17.83;;;4.07;;
23370;SDS011;11858;51.056;3.712;2023-12-20T04:34:16;3.88;;;2.42;;
23370;SDS011;11858;51.056;3.712;2023-12-20T04:36:42;2.45;;;2.25;;
23370;SDS011;11858;51.056;3.712;2023-12-20T04:39:08;6.47;;;2.72;;
23370;SDS011;11858;51.056;3.712;2023-12-20T04:41:34;5.00;;;2.65;;
23370;SDS011;11858;51.056;3.712;2023-12-20T04:44:00;7.82;;;2.33;;
23370;SDS011;11858;51.056;3.712;2023-12-20T04:46:26;7.82;;;2.17;;
23370;SDS011;11858;51.056;3.712;2023-12-20T04:48:52;2.10;;;1.98;;
23370;SDS011;11858;51.056;3.712;2023-12-20T04:51:17;9.18;;;2.85;;
23370;SDS011;11858;51.056;3.712;2023-12-20T04:53:43;8.65;;;3.15;;
23370;SDS011;11858;51.056;3.712;2023-12-20T04:56:09;12.93;;;3.03;;
23370;SDS011;11858;51.056;3.712;2023-12-20T04:58:34;12.60;;;2.95;;
23370;SDS011;11858;51.056;3.712;2023-12-20T05:01:01;5.65;;;2.40;;
23370;SDS011;11858;51.056;3.712;2023-12-20T05:03:28;12.63;;;4.05;;
23370;SDS011;11858;51.056;3.712;2023-12-20T05:05:54;12.20;;;4.13;;
23370;SDS011;11858;51.056;3.712;2023-12-20T05:08:19;2.05;;;1.95;;
23370;SDS011;11858;51.056;3.712;2023-12-20T05:10:45;20.13;;;4.15;;
23370;SDS011;11858;51.056;3.712;2023-12-20T05:13:11;1.50;;;1.50;;
23370;SDS011;11858;51.056;3.712;2023-12-20T05:15:36;1.90;;;1.80;;
23370;SDS011;11858;51.056;3.712;2023-12-20T05:18:02;21.95;;;3.22;;
23370;SDS011;11858;51.056;3.712;2023-12-20T05:20:28;11.90;;;3.92;;
23370;SDS011;11858;51.056;3.712;2023-12-20T05:22:54;19.92;;;4.55;;
23370;SDS011;11858;51.056;3.712;2023-12-20T05:25:20;19.02;;;5.65;;
23370;SDS011;11858;51.056;3.712;2023-12-20T05:27:45;5.68;;;3.10;;
23370;SDS011;11858;51.056;3.712;2023-12-20T05:30:11;2.15;;;2.05;;
23370;SDS011;11858;51.056;3.712;2023-12-20T05:32:37;7.38;;;3.53;;
23370;SDS011;11858;51.056;3.712;2023-12-20T05:35:03;5.53;;;3.45;;
23370;SDS011;11858;51.056;3.712;2023-12-20T05:37:28;2.10;;;2.00;;
23370;SDS011;11858;51.056;3.712;2023-12-20T05:39:54;1.65;;;1.63;;
23370;SDS011;11858;51.056;3.712;2023-12-20T05:42:20;2.78;;;2.55;;
23370;SDS011;11858;51.056;3.712;2023-12-20T05:44:45;10.48;;;3.20;;
23370;SDS011;11858;51.056;3.712;2023-12-20T05:47:11;2.08;;;1.98;;
23370;SDS011;11858;51.056;3.712;2023-12-20T05:49:37;2.20;;;2.00;;
23370;SDS011;11858;51.056;3.712;2023-12-20T05:52:02;2.50;;;1.88;;
23370;SDS011;11858;51.056;3.712;2023-12-20T05:54:28;3.67;;;2.40;;
23370;SDS011;11858;51.056;3.712;2023-12-20T05:56:54;15.75;;;3.83;;
23370;SDS011;11858;51.056;3.712;2023-12-20T05:59:20;14.85;;;3.65;;
23370;SDS011;11858;51.056;3.712;2023-12-20T06:01:45;16.65;;;4.78;;
23370;SDS011;11858;51.056;3.712;2023-12-20T06:04:11;4.55;;;2.78;;
23370;SDS011;11858;51.056;3.712;2023-12-20T06:06:40;7.72;;;3.13;;
23370;SDS011;11858;51.056;3.712;2023-12-20T06:09:09;2.78;;;2.58;;
23370;SDS011;11858;51.056;3.712;2023-12-20T06:11:35;8.95;;;2.42;;
23370;SDS011;11858;51.056;3.712;2023-12-20T06:14:01;4.50;;;2.50;;
23370;SDS011;11858;51.056;3.712;2023-12-20T06:16:26;5.85;;;2.72;;
23370;SDS011;11858;51.056;3.712;2023-12-20T06:18:52;6.20;;;4.75;;
23370;SDS011;11858;51.056;3.712;2023-12-20T06:21:18;1.50;;;1.50;;
23370;SDS011;11858;51.056;3.712;2023-12-20T06:23:44;9.40;;;1.88;;
23370;SDS011;11858;51.056;3.712;2023-12-20T06:26:10;12.57;;;2.90;;
23370;SDS011;11858;51.056;3.712;2023-12-20T06:28:35;3.40;;;2.53;;
23370;SDS011;11858;51.056;3.712;2023-12-20T06:31:01;2.28;;;1.73;;
23370;SDS011;11858;51.056;3.712;2023-12-20T06:33:28;15.70;;;2.38;;
23370;SDS011;11858;51.056;3.712;2023-12-20T06:35:56;1.40;;;1.40;;
23370;SDS011;11858;51.056;3.712;2023-12-20T06:38:21;18.77;;;3.97;;
23370;SDS011;11858;51.056;3.712;2023-12-20T06:40:47;28.10;;;4.00;;
23370;SDS011;11858;51.056;3.712;2023-12-20T06:43:13;10.40;;;3.03;;
23370;SDS011;11858;51.056;3.712;2023-12-20T06:45:39;54.97;;;5.53;;
23370;SDS011;11858;51.056;3.712;2023-12-20T06:48:05;4.53;;;2.08;;
23370;SDS011;11858;51.056;3.712;2023-12-20T06:50:31;1.85;;;1.77;;
23370;SDS011;11858;51.056;3.712;2023-12-20T06:52:57;9.45;;;3.13;;
23370;SDS011;11858;51.056;3.712;2023-12-20T06:55:23;13.40;;;3.80;;
23370;SDS011;11858;51.056;3.712;2023-12-20T06:57:49;10.05;;;2.80;;
23370;SDS011;11858;51.056;3.712;2023-12-20T07:00:14;11.80;;;3.20;;
23370;SDS011;11858;51.056;3.712;2023-12-20T07:02:41;7.65;;;3.15;;
23370;SDS011;11858;51.056;3.712;2023-12-20T07:05:06;1.70;;;1.60;;
23370;SDS011;11858;51.056;3.712;2023-12-20T07:07:32;20.58;;;4.03;;
23370;SDS011;11858;51.056;3.712;2023-12-20T07:09:58;14.10;;;3.28;;
23370;SDS011;11858;51.056;3.712;2023-12-20T07:12:24;15.60;;;3.70;;
23370;SDS011;11858;51.056;3.712;2023-12-20T07:14:49;8.27;;;3.03;;
23370;SDS011;11858;51.056;3.712;2023-12-20T07:17:15;19.40;;;3.38;;
23370;SDS011;11858;51.056;3.712;2023-12-20T07:19:41;9.02;;;2.78;;
23370;SDS011;11858;51.056;3.712;2023-12-20T07:22:07;1.25;;;1.25;;
23370;SDS011;11858;51.056;3.712;2023-12-20T07:24:33;7.55;;;2.10;;
23370;SDS011;11858;51.056;3.712;2023-12-20T07:27:00;1.60;;;1.50;;
23370;SDS011;11858;51.056;3.712;2023-12-20T07:29:26;1.70;;;1.60;;
23370;SDS011;11858;51.056;3.712;2023-12-20T07:31:54;4.05;;;1.70;;
23370;SDS011;11858;51.056;3.712;2023-12-20T07:34:20;11.98;;;2.65;;
23370;SDS011;11858;51.056;3.712;2023-12-20T07:36:46;9.10;;;2.60;;
23370;SDS011;11858;51.056;3.712;2023-12-20T07:39:14;11.35;;;2.22;;
23370;SDS011;11858;51.056;3.712;2023-12-20T07:41:39;19.70;;;2.58;;
23370;SDS011;11858;51.056;3.712;2023-12-20T07:44:06;6.30;;;2.05;;
23370;SDS011;11858;51.056;3.712;2023-12-20T07:46:32;3.80;;;2.15;;
23370;SDS011;11858;51.056;3.712;2023-12-20T07:48:58;11.32;;;3.30;;
23370;SDS011;11858;51.056;3.712;2023-12-20T07:51:23;2.20;;;2.10;;
23370;SDS011;11858;51.056;3.712;2023-12-20T07:53:49;1.75;;;1.65;;
23370;SDS011;11858;51.056;3.712;2023-12-20T07:56:17;7.82;;;2.42;;
23370;SDS011;11858;51.056;3.712;2023-12-20T07:58:44;2.58;;;2.47;;
23370;SDS011;11858;51.056;3.712;2023-12-20T08:01:10;12.50;;;3.60;;
23370;SDS011;11858;51.056;3.712;2023-12-20T08:03:37;17.60;;;3.58;;
23370;SDS011;11858;51.056;3.712;2023-12-20T08:06:03;17.63;;;4.78;;
23370;SDS011;11858;51.056;3.712;2023-12-20T08:08:29;4.35;;;2.25;;
23370;SDS011;11858;51.056;3.712;2023-12-20T08:10:54;8.30;;;2.65;;
23370;SDS011;11858;51.056;3.712;2023-12-20T08:13:22;1.73;;;1.63;;
23370;SDS011;11858;51.056;3.712;2023-12-20T08:15:51;1.50;;;1.50;;
23370;SDS011;11858;51.056;3.712;2023-12-20T08:18:17;1.83;;;1.73;;
23370;SDS011;11858;51.056;3.712;2023-12-20T08:20:43;17.90;;;3.75;;
23370;SDS011;11858;51.056;3.712;2023-12-20T08:23:08;15.25;;;3.53;;
23370;SDS011;11858;51.056;3.712;2023-12-20T08:25:34;23.80;;;4.97;;
23370;SDS011;11858;51.056;3.712;2023-12-20T08:28:00;7.63;;;3.00;;
23370;SDS011;11858;51.056;3.712;2023-12-20T08:30:27;2.65;;;2.38;;
23370;SDS011;11858;51.056;3.712;2023-12-20T08:32:54;8.30;;;2.78;;
23370;SDS011;11858;51.056;3.712;2023-12-20T08:35:20;2.80;;;2.50;;
23370;SDS011;11858;51.056;3.712;2023-12-20T08:37:46;19.80;;;4.57;;
23370;SDS011;11858;51.056;3.712;2023-12-20T08:40:11;1.73;;;1.67;;
23370;SDS011;11858;51.056;3.712;2023-12-20T08:42:37;14.75;;;3.97;;
23370;SDS011;11858;51.056;3.712;2023-12-20T08:45:03;1.70;;;1.70;;
23370;SDS011;11858;51.056;3.712;2023-12-20T08:47:29;20.98;;;3.90;;
23370;SDS011;11858;51.056;3.712;2023-12-20T08:49:55;2.25;;;2.15;;
23370;SDS011;11858;51.056;3.712;2023-12-20T08:52:23;8.48;;;2.78;;
23370;SDS011;11858;51.056;3.712;2023-12-20T08:54:49;4.88;;;2.15;;
23370;SDS011;11858;51.056;3.712;2023-12-20T08:57:20;3.50;;;3.20;;
23370;SDS011;11858;51.056;3.712;2023-12-20T09:02:13;14.15;;;3.17;;
23370;SDS011;11858;51.056;3.712;2023-12-20T09:04:39;6.47;;;3.15;;
23370;SDS011;11858;51.056;3.712;2023-12-20T09:07:05;13.13;;;4.07;;
23370;SDS011;11858;51.056;3.712;2023-12-20T09:09:30;12.82;;;4.10;;
23370;SDS011;11858;51.056;3.712;2023-12-20T09:11:57;8.30;;;3.55;;
23370;SDS011;11858;51.056;3.712;2023-12-20T09:14:23;14.98;;;3.00;;
23370;SDS011;11858;51.056;3.712;2023-12-20T09:16:48;10.68;;;4.25;;
23370;SDS011;11858;51.056;3.712;2023-12-20T09:19:16;12.52;;;4.32;;
23370;SDS011;11858;51.056;3.712;2023-12-20T09:21:42;4.53;;;2.90;;
23370;SDS011;11858;51.056;3.712;2023-12-20T09:24:08;3.83;;;2.92;;
23370;SDS011;11858;51.056;3.712;2023-12-20T09:26:34;8.00;;;3.40;;
23370;SDS011;11858;51.056;3.712;2023-12-20T09:28:59;7.32;;;3.17;;
23370;SDS011;11858;51.056;3.712;2023-12-20T09:31:25;2.95;;;2.72;;
23370;SDS011;11858;51.056;3.712;2023-12-20T09:33:51;5.10;;;4.60;;
23370;SDS011;11858;51.056;3.712;2023-12-20T09:36:16;14.63;;;3.35;;
23370;SDS011;11858;51.056;3.712;2023-12-20T09:38:42;14.73;;;5.15;;
23370;SDS011;11858;51.056;3.712;2023-12-20T09:41:08;21.48;;;4.50;;
23370;SDS011;11858;51.056;3.712;2023-12-20T09:43:35;9.15;;;3.95;;
23370;SDS011;11858;51.056;3.712;2023-12-20T09:46:02;16.48;;;5.13;;
23370;SDS011;11858;51.056;3.712;2023-12-20T09:48:32;7.55;;;4.05;;
23370;SDS011;11858;51.056;3.712;2023-12-20T09:50:58;8.77;;;3.83;;
23370;SDS011;11858;51.056;3.712;2023-12-20T09:53:24;8.23;;;3.95;;
23370;SDS011;11858;51.056;3.712;2023-12-20T09:55:55;6.22;;;3.50;;
23370;SDS011;11858;51.056;3.712;2023-12-20T09:58:27;15.00;;;4.00;;
23370;SDS011;11858;51.056;3.712;2023-12-20T10:00:53;12.00;;;4.88;;
23370;SDS011;11858;51.056;3.712;2023-12-20T10:03:24;6.20;;;3.80;;
23370;SDS011;11858;51.056;3.712;2023-12-20T10:05:52;6.88;;;3.47;;
23370;SDS011;11858;51.056;3.712;2023-12-20T10:08:21;13.85;;;3.88;;
23370;SDS011;11858;51.056;3.712;2023-12-20T10:10:47;10.02;;;4.25;;
23370;SDS011;11858;51.056;3.712;2023-12-20T10:13:14;2.50;;;2.40;;
23370;SDS011;11858;51.056;3.712;2023-12-20T10:15:40;9.40;;;3.60;;
23370;SDS011;11858;51.056;3.712;2023-12-20T10:18:06;26.67;;;5.47;;
23370;SDS011;11858;51.056;3.712;2023-12-20T10:20:33;7.50;;;4.00;;
23370;SDS011;11858;51.056;3.712;2023-12-20T10:22:59;2.40;;;2.30;;
23370;SDS011;11858;51.056;3.712;2023-12-20T10:25:25;3.53;;;3.22;;
23370;SDS011;11858;51.056;3.712;2023-12-20T10:28:08;20.98;;;4.88;;
23370;SDS011;11858;51.056;3.712;2023-12-20T10:30:35;20.73;;;5.68;;
23370;SDS011;11858;51.056;3.712;2023-12-20T10:33:01;13.63;;;5.25;;
23370;SDS011;11858;51.056;3.712;2023-12-20T10:35:27;2.60;;;2.50;;
23370;SDS011;11858;51.056;3.712;2023-12-20T10:37:54;13.95;;;3.58;;
23370;SDS011;11858;51.056;3.712;2023-12-20T10:40:21;5.25;;;3.10;;
23370;SDS011;11858;51.056;3.712;2023-12-20T10:42:48;3.33;;;3.13;;
23370;SDS011;11858;51.056;3.712;2023-12-20T10:45:14;15.85;;;5.65;;
23370;SDS011;11858;51.056;3.712;2023-12-20T10:47:42;8.00;;;3.60;;
23370;SDS011;11858;51.056;3.712;2023-12-20T10:50:11;6.10;;;3.78;;
23370;SDS011;11858;51.056;3.712;2023-12-20T10:52:37;2.78;;;2.67;;
23370;SDS011;11858;51.056;3.712;2023-12-20T10:55:03;3.55;;;3.35;;
23370;SDS011;11858;51.056;3.712;2023-12-20T10:57:30;3.35;;;3.08;;
23370;SDS011;11858;51.056;3.712;2023-12-20T10:59:56;2.80;;;2.70;;
23370;SDS011;11858;51.056;3.712;2023-12-20T11:02:26;17.67;;;4.28;;
23370;SDS011;11858;51.056;3.712;2023-12-20T11:07:58;3.47;;;3.28;;
23370;SDS011;11858;51.056;3.712;2023-12-20T11:10:33;3.05;;;2.95;;
23370;SDS011;11858;51.056;3.712;2023-12-20T11:13:23;4.65;;;4.20;;
23370;SDS011;11858;51.056;3.712;2023-12-20T11:15:55;4.10;;;3.70;;
23370;SDS011;11858;51.056;3.712;2023-12-20T11:18:25;12.98;;;5.35;;
23370;SDS011;11858;51.056;3.712;2023-12-20T11:21:00;6.40;;;5.80;;
23370;SDS011;11858;51.056;3.712;2023-12-20T11:23:29;3.97;;;3.78;;
23370;SDS011;11858;51.056;3.712;2023-12-20T11:25:56;16.05;;;6.22;;
23370;SDS011;11858;51.056;3.712;2023-12-20T11:28:25;6.70;;;4.82;;
23370;SDS011;11858;51.056;3.712;2023-12-20T11:30:52;10.05;;;5.00;;
23370;SDS011;11858;51.056;3.712;2023-12-20T11:33:22;8.75;;;4.20;;
23370;SDS011;11858;51.056;3.712;2023-12-20T11:35:49;14.73;;;4.95;;
23370;SDS011;11858;51.056;3.712;2023-12-20T11:38:15;8.73;;;4.60;;
23370;SDS011;11858;51.056;3.712;2023-12-20T11:40:42;7.28;;;4.22;;
23370;SDS011;11858;51.056;3.712;2023-12-20T11:43:08;6.43;;;4.30;;
23370;SDS011;11858;51.056;3.712;2023-12-20T11:45:34;6.25;;;4.53;;
23370;SDS011;11858;51.056;3.712;2023-12-20T11:48:03;14.25;;;5.80;;
23370;SDS011;11858;51.056;3.712;2023-12-20T11:50:31;8.75;;;4.60;;
23370;SDS011;11858;51.056;3.712;2023-12-20T11:52:57;5.32;;;4.15;;
23370;SDS011;11858;51.056;3.712;2023-12-20T11:55:23;5.07;;;4.68;;
23370;SDS011;11858;51.056;3.712;2023-12-20T11:57:52;4.13;;;3.83;;
23370;SDS011;11858;51.056;3.712;2023-12-20T12:00:18;4.45;;;4.15;;
23370;SDS011;11858;51.056;3.712;2023-12-20T12:02:54;3.90;;;3.70;;
23370;SDS011;11858;51.056;3.712;2023-12-20T12:05:21;4.03;;;3.80;;
23370;SDS011;11858;51.056;3.712;2023-12-20T12:07:47;12.95;;;4.55;;
23370;SDS011;11858;51.056;3.712;2023-12-20T12:10:13;3.50;;;3.30;;
23370;SDS011;11858;51.056;3.712;2023-12-20T12:12:39;6.80;;;4.10;;
23370;SDS011;11858;51.056;3.712;2023-12-20T12:15:05;4.10;;;3.80;;
23370;SDS011;11858;51.056;3.712;2023-12-20T12:17:31;5.57;;;4.97;;
23370;SDS011;11858;51.056;3.712;2023-12-20T12:20:03;7.43;;;5.18;;
23370;SDS011;11858;51.056;3.712;2023-12-20T12:22:30;7.30;;;3.83;;
23370;SDS011;11858;51.056;3.712;2023-12-20T12:24:58;4.78;;;4.45;;
23370;SDS011;11858;51.056;3.712;2023-12-20T12:27:25;4.03;;;3.83;;
23370;SDS011;11858;51.056;3.712;2023-12-20T12:30:00;8.52;;;5.07;;
23370;SDS011;11858;51.056;3.712;2023-12-20T12:32:32;2.70;;;2.60;;
23370;SDS011;11858;51.056;3.712;2023-12-20T12:34:58;3.60;;;3.40;;
23370;SDS011;11858;51.056;3.712;2023-12-20T12:37:23;4.78;;;4.30;;
23370;SDS011;11858;51.056;3.712;2023-12-20T12:39:49;5.30;;;4.50;;
23370;SDS011;11858;51.056;3.712;2023-12-20T12:42:15;4.43;;;4.03;;
23370;SDS011;11858;51.056;3.712;2023-12-20T12:44:41;8.32;;;5.07;;
23370;SDS011;11858;51.056;3.712;2023-12-20T12:47:06;6.05;;;5.53;;
23370;SDS011;11858;51.056;3.712;2023-12-20T12:49:33;9.60;;;6.25;;
23370;SDS011;11858;51.056;3.712;2023-12-20T12:51:58;5.47;;;5.18;;
23370;SDS011;11858;51.056;3.712;2023-12-20T12:54:26;5.63;;;5.32;;
23370;SDS011;11858;51.056;3.712;2023-12-20T12:56:52;5.90;;;5.50;;
23370;SDS011;11858;51.056;3.712;2023-12-20T12:59:18;10.55;;;5.80;;
23370;SDS011;11858;51.056;3.712;2023-12-20T13:01:44;6.20;;;5.90;;
23370;SDS011;11858;51.056;3.712;2023-12-20T13:04:09;7.40;;;6.78;;
23370;SDS011;11858;51.056;3.712;2023-12-20T13:06:38;8.05;;;7.53;;
23370;SDS011;11858;51.056;3.712;2023-12-20T13:09:06;9.40;;;8.60;;
23370;SDS011;11858;51.056;3.712;2023-12-20T13:11:32;7.80;;;7.40;;
23370;SDS011;11858;51.056;3.712;2023-12-20T13:13:58;9.05;;;8.05;;
23370;SDS011;11858;51.056;3.712;2023-12-20T13:16:23;10.15;;;8.98;;
23370;SDS011;11858;51.056;3.712;2023-12-20T13:18:49;7.30;;;6.90;;
23370;SDS011;11858;51.056;3.712;2023-12-20T13:21:15;10.90;;;7.63;;
23370;SDS011;11858;51.056;3.712;2023-12-20T13:23:41;6.70;;;6.30;;
23370;SDS011;11858;51.056;3.712;2023-12-20T13:26:07;7.35;;;6.75;;
23370;SDS011;11858;51.056;3.712;2023-12-20T13:28:33;9.60;;;7.80;;
23370;SDS011;11858;51.056;3.712;2023-12-20T13:30:59;5.70;;;5.40;;
23370;SDS011;11858;51.056;3.712;2023-12-20T13:33:24;9.02;;;7.28;;
23370;SDS011;11858;51.056;3.712;2023-12-20T13:35:50;10.52;;;7.68;;
23370;SDS011;11858;51.056;3.712;2023-12-20T13:38:16;6.95;;;6.40;;
23370;SDS011;11858;51.056;3.712;2023-12-20T13:40:42;5.30;;;5.00;;
23370;SDS011;11858;51.056;3.712;2023-12-20T13:43:08;6.50;;;6.10;;
23370;SDS011;11858;51.056;3.712;2023-12-20T13:45:36;5.70;;;5.40;;
23370;SDS011;11858;51.056;3.712;2023-12-20T13:48:01;6.47;;;6.07;;
23370;SDS011;11858;51.056;3.712;2023-12-20T13:50:27;5.75;;;5.35;;
23370;SDS011;11858;51.056;3.712;2023-12-20T13:52:54;5.00;;;4.70;;
23370;SDS011;11858;51.056;3.712;2023-12-20T13:55:19;5.40;;;5.10;;
23370;SDS011;11858;51.056;3.712;2023-12-20T13:57:49;6.43;;;5.90;;
23370;SDS011;11858;51.056;3.712;2023-12-20T14:00:16;11.93;;;6.63;;
23370;SDS011;11858;51.056;3.712;2023-12-20T14:02:41;9.02;;;5.60;;
23370;SDS011;11858;51.056;3.712;2023-12-20T14:05:08;9.95;;;5.85;;
23370;SDS011;11858;51.056;3.712;2023-12-20T14:07:34;5.65;;;5.25;;
23370;SDS011;11858;51.056;3.712;2023-12-20T14:10:00;9.75;;;5.32;;
23370;SDS011;11858;51.056;3.712;2023-12-20T14:12:26;7.00;;;5.57;;
23370;SDS011;11858;51.056;3.712;2023-12-20T14:14:51;11.98;;;6.57;;
23370;SDS011;11858;51.056;3.712;2023-12-20T14:17:17;8.25;;;4.50;;
23370;SDS011;11858;51.056;3.712;2023-12-20T14:19:43;10.38;;;5.88;;
23370;SDS011;11858;51.056;3.712;2023-12-20T14:22:08;4.45;;;4.10;;
23370;SDS011;11858;51.056;3.712;2023-12-20T14:24:37;9.52;;;4.82;;
23370;SDS011;11858;51.056;3.712;2023-12-20T14:27:03;4.95;;;4.55;;
23370;SDS011;11858;51.056;3.712;2023-12-20T14:29:29;8.10;;;5.35;;
23370;SDS011;11858;51.056;3.712;2023-12-20T14:31:54;11.82;;;5.18;;
23370;SDS011;11858;51.056;3.712;2023-12-20T14:34:20;4.40;;;4.20;;
23370;SDS011;11858;51.056;3.712;2023-12-20T14:36:46;7.82;;;5.50;;
23370;SDS011;11858;51.056;3.712;2023-12-20T14:39:11;7.30;;;5.20;;
23370;SDS011;11858;51.056;3.712;2023-12-20T14:41:38;5.28;;;4.78;;
23370;SDS011;11858;51.056;3.712;2023-12-20T14:44:07;4.85;;;4.55;;